sensor_id;sensor_type;location;lat;lon;timestamp;P1;durP1;ratioP1;P2;durP2;ratioP2
73869;SDS011;64924;42.140;24.762;2024-01-27T00:01:36;5.82;;;2.42;;
73869;SDS011;64924;42.140;24.762;2024-01-27T00:04:01;7.90;;;2.90;;
73869;SDS011;64924;42.140;24.762;2024-01-27T00:06:27;6.18;;;2.92;;
73869;SDS011;64924;42.140;24.762;2024-01-27T00:08:52;5.90;;;2.70;;
73869;SDS011;64924;42.140;24.762;2024-01-27T00:11:18;12.63;;;5.05;;
73869;SDS011;64924;42.140;24.762;2024-01-27T00:13:44;10.50;;;5.10;;
73869;SDS011;64924;42.140;24.762;2024-01-27T00:16:10;9.95;;;4.18;;
73869;SDS011;64924;42.140;24.762;2024-01-27T00:18:36;9.57;;;4.38;;
73869;SDS011;64924;42.140;24.762;2024-01-27T00:21:02;5.55;;;3.40;;
73869;SDS011;64924;42.140;24.762;2024-01-27T00:23:28;8.55;;;3.90;;
73869;SDS011;64924;42.140;24.762;2024-01-27T00:25:54;7.93;;;2.95;;
73869;SDS011;64924;42.140;24.762;2024-01-27T00:28:19;8.00;;;3.20;;
73869;SDS011;64924;42.140;24.762;2024-01-27T00:30:45;4.32;;;2.30;;
73869;SDS011;64924;42.140;24.762;2024-01-27T00:33:10;7.70;;;2.42;;
73869;SDS011;64924;42.140;24.762;2024-01-27T00:35:36;6.47;;;2.88;;
73869;SDS011;64924;42.140;24.762;2024-01-27T00:38:01;5.30;;;2.63;;
73869;SDS011;64924;42.140;24.762;2024-01-27T00:40:27;6.10;;;2.60;;
73869;SDS011;64924;42.140;24.762;2024-01-27T00:42:53;6.38;;;3.10;;
73869;SDS011;64924;42.140;24.762;2024-01-27T00:45:19;7.55;;;2.70;;
73869;SDS011;64924;42.140;24.762;2024-01-27T00:47:47;5.57;;;2.50;;
73869;SDS011;64924;42.140;24.762;2024-01-27T00:50:14;5.47;;;2.63;;
73869;SDS011;64924;42.140;24.762;2024-01-27T00:52:40;4.60;;;2.20;;
73869;SDS011;64924;42.140;24.762;2024-01-27T00:55:05;8.88;;;3.00;;
73869;SDS011;64924;42.140;24.762;2024-01-27T00:57:31;7.30;;;2.70;;
73869;SDS011;64924;42.140;24.762;2024-01-27T00:59:56;9.65;;;2.30;;
73869;SDS011;64924;42.140;24.762;2024-01-27T01:02:22;5.60;;;2.45;;
73869;SDS011;64924;42.140;24.762;2024-01-27T01:04:47;4.68;;;2.72;;
73869;SDS011;64924;42.140;24.762;2024-01-27T01:07:13;7.53;;;2.58;;
73869;SDS011;64924;42.140;24.762;2024-01-27T01:09:38;6.07;;;2.85;;
73869;SDS011;64924;42.140;24.762;2024-01-27T01:12:04;6.35;;;2.67;;
73869;SDS011;64924;42.140;24.762;2024-01-27T01:14:30;7.38;;;3.00;;
73869;SDS011;64924;42.140;24.762;2024-01-27T01:16:55;6.70;;;3.17;;
73869;SDS011;64924;42.140;24.762;2024-01-27T01:19:21;6.88;;;3.33;;
73869;SDS011;64924;42.140;24.762;2024-01-27T01:21:49;5.10;;;2.97;;
73869;SDS011;64924;42.140;24.762;2024-01-27T01:24:14;11.02;;;2.95;;
73869;SDS011;64924;42.140;24.762;2024-01-27T01:26:40;6.60;;;2.60;;
73869;SDS011;64924;42.140;24.762;2024-01-27T01:29:05;7.03;;;2.60;;
73869;SDS011;64924;42.140;24.762;2024-01-27T01:31:31;6.85;;;3.10;;
73869;SDS011;64924;42.140;24.762;2024-01-27T01:33:56;6.00;;;3.53;;
73869;SDS011;64924;42.140;24.762;2024-01-27T01:36:22;6.55;;;3.60;;
73869;SDS011;64924;42.140;24.762;2024-01-27T01:38:47;7.30;;;3.83;;
73869;SDS011;64924;42.140;24.762;2024-01-27T01:41:13;4.90;;;3.42;;
73869;SDS011;64924;42.140;24.762;2024-01-27T01:43:39;8.25;;;3.60;;
73869;SDS011;64924;42.140;24.762;2024-01-27T01:46:04;9.15;;;3.90;;
73869;SDS011;64924;42.140;24.762;2024-01-27T01:48:30;8.45;;;3.28;;
73869;SDS011;64924;42.140;24.762;2024-01-27T01:50:55;7.20;;;3.45;;
73869;SDS011;64924;42.140;24.762;2024-01-27T01:53:21;5.78;;;3.15;;
73869;SDS011;64924;42.140;24.762;2024-01-27T01:55:47;7.28;;;3.17;;
73869;SDS011;64924;42.140;24.762;2024-01-27T01:58:15;7.88;;;3.13;;
73869;SDS011;64924;42.140;24.762;2024-01-27T02:00:41;6.40;;;2.80;;
73869;SDS011;64924;42.140;24.762;2024-01-27T02:03:10;7.70;;;2.80;;
73869;SDS011;64924;42.140;24.762;2024-01-27T02:05:36;5.35;;;2.88;;
73869;SDS011;64924;42.140;24.762;2024-01-27T02:08:02;6.43;;;2.58;;
73869;SDS011;64924;42.140;24.762;2024-01-27T02:10:29;6.72;;;2.40;;
73869;SDS011;64924;42.140;24.762;2024-01-27T02:13:01;4.78;;;2.33;;
73869;SDS011;64924;42.140;24.762;2024-01-27T02:15:27;6.60;;;2.33;;
73869;SDS011;64924;42.140;24.762;2024-01-27T02:17:52;4.90;;;2.40;;
73869;SDS011;64924;42.140;24.762;2024-01-27T02:20:18;6.03;;;3.03;;
73869;SDS011;64924;42.140;24.762;2024-01-27T02:22:43;6.82;;;2.30;;
73869;SDS011;64924;42.140;24.762;2024-01-27T02:25:08;7.63;;;3.08;;
73869;SDS011;64924;42.140;24.762;2024-01-27T02:27:34;7.38;;;3.13;;
73869;SDS011;64924;42.140;24.762;2024-01-27T02:29:59;6.25;;;2.83;;
73869;SDS011;64924;42.140;24.762;2024-01-27T02:32:25;9.50;;;2.72;;
73869;SDS011;64924;42.140;24.762;2024-01-27T02:34:50;6.60;;;3.20;;
73869;SDS011;64924;42.140;24.762;2024-01-27T02:37:16;6.80;;;3.30;;
73869;SDS011;64924;42.140;24.762;2024-01-27T02:39:42;6.32;;;2.72;;
73869;SDS011;64924;42.140;24.762;2024-01-27T02:42:08;7.82;;;2.97;;
73869;SDS011;64924;42.140;24.762;2024-01-27T02:44:33;6.70;;;3.17;;
73869;SDS011;64924;42.140;24.762;2024-01-27T02:46:59;6.68;;;3.05;;
73869;SDS011;64924;42.140;24.762;2024-01-27T02:49:24;7.25;;;3.25;;
73869;SDS011;64924;42.140;24.762;2024-01-27T02:51:50;6.82;;;2.90;;
73869;SDS011;64924;42.140;24.762;2024-01-27T02:54:15;4.15;;;2.28;;
73869;SDS011;64924;42.140;24.762;2024-01-27T02:56:41;7.75;;;2.88;;
73869;SDS011;64924;42.140;24.762;2024-01-27T02:59:06;5.25;;;2.40;;
73869;SDS011;64924;42.140;24.762;2024-01-27T03:01:32;5.43;;;2.55;;
73869;SDS011;64924;42.140;24.762;2024-01-27T03:03:57;4.93;;;1.88;;
73869;SDS011;64924;42.140;24.762;2024-01-27T03:06:23;4.22;;;2.22;;
73869;SDS011;64924;42.140;24.762;2024-01-27T03:08:49;6.53;;;2.22;;
73869;SDS011;64924;42.140;24.762;2024-01-27T03:11:14;6.05;;;2.22;;
73869;SDS011;64924;42.140;24.762;2024-01-27T03:13:39;6.70;;;2.20;;
73869;SDS011;64924;42.140;24.762;2024-01-27T03:16:10;5.82;;;2.78;;
73869;SDS011;64924;42.140;24.762;2024-01-27T03:18:36;6.78;;;2.90;;
73869;SDS011;64924;42.140;24.762;2024-01-27T03:21:02;7.30;;;3.17;;
73869;SDS011;64924;42.140;24.762;2024-01-27T03:23:28;5.88;;;2.60;;
73869;SDS011;64924;42.140;24.762;2024-01-27T03:25:54;3.95;;;2.42;;
73869;SDS011;64924;42.140;24.762;2024-01-27T03:28:19;7.03;;;3.28;;
73869;SDS011;64924;42.140;24.762;2024-01-27T03:30:45;5.35;;;3.00;;
73869;SDS011;64924;42.140;24.762;2024-01-27T03:33:10;6.53;;;2.90;;
73869;SDS011;64924;42.140;24.762;2024-01-27T03:35:37;10.15;;;3.92;;
73869;SDS011;64924;42.140;24.762;2024-01-27T03:38:05;6.95;;;2.92;;
73869;SDS011;64924;42.140;24.762;2024-01-27T03:40:30;8.07;;;2.92;;
73869;SDS011;64924;42.140;24.762;2024-01-27T03:42:56;7.10;;;2.55;;
73869;SDS011;64924;42.140;24.762;2024-01-27T03:45:21;4.57;;;2.15;;
73869;SDS011;64924;42.140;24.762;2024-01-27T03:47:47;5.07;;;2.60;;
73869;SDS011;64924;42.140;24.762;2024-01-27T03:50:12;6.32;;;2.63;;
73869;SDS011;64924;42.140;24.762;2024-01-27T03:52:38;5.13;;;2.03;;
73869;SDS011;64924;42.140;24.762;2024-01-27T03:55:03;3.63;;;1.95;;
73869;SDS011;64924;42.140;24.762;2024-01-27T03:57:30;3.80;;;1.90;;
73869;SDS011;64924;42.140;24.762;2024-01-27T03:59:56;4.57;;;1.88;;
73869;SDS011;64924;42.140;24.762;2024-01-27T04:02:21;4.13;;;2.00;;
73869;SDS011;64924;42.140;24.762;2024-01-27T04:04:47;3.47;;;1.80;;
73869;SDS011;64924;42.140;24.762;2024-01-27T04:07:12;5.63;;;1.80;;
73869;SDS011;64924;42.140;24.762;2024-01-27T04:09:38;7.25;;;2.10;;
73869;SDS011;64924;42.140;24.762;2024-01-27T04:12:03;3.38;;;1.55;;
73869;SDS011;64924;42.140;24.762;2024-01-27T04:14:29;7.65;;;2.17;;
73869;SDS011;64924;42.140;24.762;2024-01-27T04:16:55;4.55;;;1.60;;
73869;SDS011;64924;42.140;24.762;2024-01-27T04:19:20;4.90;;;1.83;;
73869;SDS011;64924;42.140;24.762;2024-01-27T04:21:46;5.28;;;2.08;;
73869;SDS011;64924;42.140;24.762;2024-01-27T04:24:11;3.55;;;1.70;;
73869;SDS011;64924;42.140;24.762;2024-01-27T04:26:37;3.38;;;1.85;;
73869;SDS011;64924;42.140;24.762;2024-01-27T04:29:02;3.55;;;1.55;;
73869;SDS011;64924;42.140;24.762;2024-01-27T04:31:28;3.75;;;1.95;;
73869;SDS011;64924;42.140;24.762;2024-01-27T04:33:53;6.82;;;2.00;;
73869;SDS011;64924;42.140;24.762;2024-01-27T04:36:28;4.78;;;2.35;;
73869;SDS011;64924;42.140;24.762;2024-01-27T04:38:54;3.63;;;2.10;;
73869;SDS011;64924;42.140;24.762;2024-01-27T04:41:20;4.97;;;2.22;;
73869;SDS011;64924;42.140;24.762;2024-01-27T04:43:46;5.88;;;2.25;;
73869;SDS011;64924;42.140;24.762;2024-01-27T04:46:11;4.97;;;1.77;;
73869;SDS011;64924;42.140;24.762;2024-01-27T04:48:37;5.80;;;2.42;;
73869;SDS011;64924;42.140;24.762;2024-01-27T04:51:02;4.00;;;1.90;;
73869;SDS011;64924;42.140;24.762;2024-01-27T04:53:28;6.07;;;2.05;;
73869;SDS011;64924;42.140;24.762;2024-01-27T04:55:53;3.47;;;2.05;;
73869;SDS011;64924;42.140;24.762;2024-01-27T04:58:18;4.47;;;1.73;;
73869;SDS011;64924;42.140;24.762;2024-01-27T05:00:44;7.05;;;2.85;;
73869;SDS011;64924;42.140;24.762;2024-01-27T05:03:09;11.05;;;3.60;;
73869;SDS011;64924;42.140;24.762;2024-01-27T05:05:40;9.75;;;4.15;;
73869;SDS011;64924;42.140;24.762;2024-01-27T05:08:07;8.60;;;3.95;;
73869;SDS011;64924;42.140;24.762;2024-01-27T05:10:33;7.20;;;3.63;;
73869;SDS011;64924;42.140;24.762;2024-01-27T05:12:58;10.55;;;3.70;;
73869;SDS011;64924;42.140;24.762;2024-01-27T05:15:24;13.68;;;4.35;;
73869;SDS011;64924;42.140;24.762;2024-01-27T05:17:50;11.30;;;4.10;;
73869;SDS011;64924;42.140;24.762;2024-01-27T05:20:15;9.93;;;4.60;;
73869;SDS011;64924;42.140;24.762;2024-01-27T05:22:41;13.38;;;4.70;;
73869;SDS011;64924;42.140;24.762;2024-01-27T05:25:07;7.40;;;3.05;;
73869;SDS011;64924;42.140;24.762;2024-01-27T05:27:33;7.10;;;2.30;;
73869;SDS011;64924;42.140;24.762;2024-01-27T05:29:58;4.50;;;1.75;;
73869;SDS011;64924;42.140;24.762;2024-01-27T05:32:24;7.55;;;2.15;;
73869;SDS011;64924;42.140;24.762;2024-01-27T05:34:49;5.88;;;1.73;;
73869;SDS011;64924;42.140;24.762;2024-01-27T05:37:15;5.10;;;1.77;;
73869;SDS011;64924;42.140;24.762;2024-01-27T05:39:40;3.85;;;1.83;;
73869;SDS011;64924;42.140;24.762;2024-01-27T05:42:06;8.93;;;2.33;;
73869;SDS011;64924;42.140;24.762;2024-01-27T05:44:31;15.90;;;6.60;;
73869;SDS011;64924;42.140;24.762;2024-01-27T05:46:57;31.52;;;12.82;;
73869;SDS011;64924;42.140;24.762;2024-01-27T05:49:23;11.85;;;6.38;;
73869;SDS011;64924;42.140;24.762;2024-01-27T05:51:48;7.03;;;2.72;;
73869;SDS011;64924;42.140;24.762;2024-01-27T05:54:15;6.95;;;2.88;;
73869;SDS011;64924;42.140;24.762;2024-01-27T05:56:42;4.07;;;2.03;;
73869;SDS011;64924;42.140;24.762;2024-01-27T05:59:07;5.70;;;2.20;;
73869;SDS011;64924;42.140;24.762;2024-01-27T06:01:33;6.38;;;1.90;;
73869;SDS011;64924;42.140;24.762;2024-01-27T06:03:58;7.22;;;2.45;;
73869;SDS011;64924;42.140;24.762;2024-01-27T06:06:24;5.30;;;2.30;;
73869;SDS011;64924;42.140;24.762;2024-01-27T06:08:49;5.40;;;1.80;;
73869;SDS011;64924;42.140;24.762;2024-01-27T06:11:22;15.00;;;3.08;;
73869;SDS011;64924;42.140;24.762;2024-01-27T06:13:51;8.73;;;2.50;;
73869;SDS011;64924;42.140;24.762;2024-01-27T06:16:19;6.65;;;2.53;;
73869;SDS011;64924;42.140;24.762;2024-01-27T06:18:45;6.30;;;3.15;;
73869;SDS011;64924;42.140;24.762;2024-01-27T06:21:10;3.83;;;2.30;;
73869;SDS011;64924;42.140;24.762;2024-01-27T06:23:36;4.32;;;2.60;;
73869;SDS011;64924;42.140;24.762;2024-01-27T06:26:08;6.60;;;2.70;;
73869;SDS011;64924;42.140;24.762;2024-01-27T06:28:34;8.07;;;2.42;;
73869;SDS011;64924;42.140;24.762;2024-01-27T06:31:03;14.57;;;3.25;;
73869;SDS011;64924;42.140;24.762;2024-01-27T06:33:29;6.05;;;2.70;;
73869;SDS011;64924;42.140;24.762;2024-01-27T06:35:55;5.35;;;2.42;;
73869;SDS011;64924;42.140;24.762;2024-01-27T06:38:21;4.95;;;2.55;;
73869;SDS011;64924;42.140;24.762;2024-01-27T06:40:46;7.78;;;3.10;;
73869;SDS011;64924;42.140;24.762;2024-01-27T06:43:12;6.15;;;2.58;;
73869;SDS011;64924;42.140;24.762;2024-01-27T06:45:38;4.53;;;3.00;;
73869;SDS011;64924;42.140;24.762;2024-01-27T06:48:05;7.10;;;3.10;;
73869;SDS011;64924;42.140;24.762;2024-01-27T06:50:31;5.95;;;2.58;;
73869;SDS011;64924;42.140;24.762;2024-01-27T06:52:57;7.32;;;3.40;;
73869;SDS011;64924;42.140;24.762;2024-01-27T06:55:22;7.10;;;3.10;;
73869;SDS011;64924;42.140;24.762;2024-01-27T06:57:48;7.18;;;3.50;;
73869;SDS011;64924;42.140;24.762;2024-01-27T07:00:13;6.65;;;3.50;;
73869;SDS011;64924;42.140;24.762;2024-01-27T07:02:40;6.70;;;3.60;;
73869;SDS011;64924;42.140;24.762;2024-01-27T07:05:08;11.45;;;4.78;;
73869;SDS011;64924;42.140;24.762;2024-01-27T07:07:34;8.45;;;3.75;;
73869;SDS011;64924;42.140;24.762;2024-01-27T07:10:00;8.65;;;4.82;;
73869;SDS011;64924;42.140;24.762;2024-01-27T07:12:26;8.65;;;3.97;;
73869;SDS011;64924;42.140;24.762;2024-01-27T07:14:51;9.48;;;3.65;;
73869;SDS011;64924;42.140;24.762;2024-01-27T07:17:17;8.98;;;3.65;;
73869;SDS011;64924;42.140;24.762;2024-01-27T07:19:43;10.02;;;3.88;;
73869;SDS011;64924;42.140;24.762;2024-01-27T07:22:09;10.15;;;6.15;;
73869;SDS011;64924;42.140;24.762;2024-01-27T07:24:34;15.77;;;7.30;;
73869;SDS011;64924;42.140;24.762;2024-01-27T07:27:00;8.73;;;4.13;;
73869;SDS011;64924;42.140;24.762;2024-01-27T07:29:26;8.13;;;4.30;;
73869;SDS011;64924;42.140;24.762;2024-01-27T07:31:53;9.35;;;3.28;;
73869;SDS011;64924;42.140;24.762;2024-01-27T07:34:18;8.73;;;3.33;;
73869;SDS011;64924;42.140;24.762;2024-01-27T07:36:44;7.53;;;3.65;;
73869;SDS011;64924;42.140;24.762;2024-01-27T07:39:10;12.30;;;4.30;;
73869;SDS011;64924;42.140;24.762;2024-01-27T07:41:36;10.38;;;3.95;;
73869;SDS011;64924;42.140;24.762;2024-01-27T07:44:08;7.53;;;3.70;;
73869;SDS011;64924;42.140;24.762;2024-01-27T07:46:37;7.13;;;3.85;;
73869;SDS011;64924;42.140;24.762;2024-01-27T07:49:03;10.25;;;4.22;;
73869;SDS011;64924;42.140;24.762;2024-01-27T07:51:29;9.70;;;4.60;;
73869;SDS011;64924;42.140;24.762;2024-01-27T07:53:55;7.95;;;4.22;;
73869;SDS011;64924;42.140;24.762;2024-01-27T07:56:20;9.73;;;3.50;;
73869;SDS011;64924;42.140;24.762;2024-01-27T07:58:46;9.63;;;4.35;;
73869;SDS011;64924;42.140;24.762;2024-01-27T08:01:15;8.20;;;3.50;;
73869;SDS011;64924;42.140;24.762;2024-01-27T08:03:41;9.98;;;4.00;;
73869;SDS011;64924;42.140;24.762;2024-01-27T08:06:10;10.23;;;4.07;;
73869;SDS011;64924;42.140;24.762;2024-01-27T08:08:40;8.65;;;3.13;;
73869;SDS011;64924;42.140;24.762;2024-01-27T08:11:06;6.43;;;3.47;;
73869;SDS011;64924;42.140;24.762;2024-01-27T08:13:32;8.95;;;3.92;;
73869;SDS011;64924;42.140;24.762;2024-01-27T08:15:57;8.18;;;3.45;;
73869;SDS011;64924;42.140;24.762;2024-01-27T08:18:23;8.13;;;3.30;;
73869;SDS011;64924;42.140;24.762;2024-01-27T08:20:48;9.18;;;3.03;;
73869;SDS011;64924;42.140;24.762;2024-01-27T08:23:14;6.88;;;3.25;;
73869;SDS011;64924;42.140;24.762;2024-01-27T08:25:39;8.55;;;3.03;;
73869;SDS011;64924;42.140;24.762;2024-01-27T08:28:06;6.50;;;3.00;;
73869;SDS011;64924;42.140;24.762;2024-01-27T08:30:32;6.90;;;4.00;;
73869;SDS011;64924;42.140;24.762;2024-01-27T08:32:57;10.75;;;3.80;;
73869;SDS011;64924;42.140;24.762;2024-01-27T08:35:22;8.65;;;3.47;;
73869;SDS011;64924;42.140;24.762;2024-01-27T08:37:48;8.27;;;4.18;;
73869;SDS011;64924;42.140;24.762;2024-01-27T08:40:13;15.45;;;3.92;;
73869;SDS011;64924;42.140;24.762;2024-01-27T08:42:39;10.57;;;3.42;;
73869;SDS011;64924;42.140;24.762;2024-01-27T08:45:05;7.07;;;4.20;;
73869;SDS011;64924;42.140;24.762;2024-01-27T08:47:31;7.50;;;2.33;;
73869;SDS011;64924;42.140;24.762;2024-01-27T08:49:57;12.23;;;2.92;;
73869;SDS011;64924;42.140;24.762;2024-01-27T08:52:22;6.38;;;2.40;;
73869;SDS011;64924;42.140;24.762;2024-01-27T08:54:48;11.20;;;2.38;;
73869;SDS011;64924;42.140;24.762;2024-01-27T08:57:14;6.00;;;2.10;;
73869;SDS011;64924;42.140;24.762;2024-01-27T08:59:39;5.50;;;2.72;;
73869;SDS011;64924;42.140;24.762;2024-01-27T09:02:05;6.18;;;2.95;;
73869;SDS011;64924;42.140;24.762;2024-01-27T09:04:30;5.43;;;2.28;;
73869;SDS011;64924;42.140;24.762;2024-01-27T09:06:56;6.28;;;2.72;;
73869;SDS011;64924;42.140;24.762;2024-01-27T09:09:21;7.60;;;2.63;;
73869;SDS011;64924;42.140;24.762;2024-01-27T09:11:47;4.50;;;2.60;;
73869;SDS011;64924;42.140;24.762;2024-01-27T09:14:13;3.90;;;2.20;;
73869;SDS011;64924;42.140;24.762;2024-01-27T09:16:39;5.18;;;2.65;;
73869;SDS011;64924;42.140;24.762;2024-01-27T09:19:05;4.05;;;2.00;;
73869;SDS011;64924;42.140;24.762;2024-01-27T09:21:30;3.92;;;2.15;;
73869;SDS011;64924;42.140;24.762;2024-01-27T09:23:57;5.95;;;2.00;;
73869;SDS011;64924;42.140;24.762;2024-01-27T09:26:23;14.70;;;2.78;;
73869;SDS011;64924;42.140;24.762;2024-01-27T09:28:48;5.05;;;2.28;;
73869;SDS011;64924;42.140;24.762;2024-01-27T09:31:22;7.78;;;4.43;;
73869;SDS011;64924;42.140;24.762;2024-01-27T09:33:49;4.50;;;2.73;;
73869;SDS011;64924;42.140;24.762;2024-01-27T09:36:16;11.10;;;2.47;;
73869;SDS011;64924;42.140;24.762;2024-01-27T09:38:42;10.10;;;2.75;;
73869;SDS011;64924;42.140;24.762;2024-01-27T09:41:08;6.72;;;2.33;;
73869;SDS011;64924;42.140;24.762;2024-01-27T09:43:34;4.55;;;2.30;;
73869;SDS011;64924;42.140;24.762;2024-01-27T09:46:02;8.93;;;2.42;;
73869;SDS011;64924;42.140;24.762;2024-01-27T09:48:28;6.85;;;2.30;;
73869;SDS011;64924;42.140;24.762;2024-01-27T09:50:55;7.03;;;2.75;;
73869;SDS011;64924;42.140;24.762;2024-01-27T09:53:23;5.15;;;2.70;;
73869;SDS011;64924;42.140;24.762;2024-01-27T09:55:49;6.90;;;2.50;;
73869;SDS011;64924;42.140;24.762;2024-01-27T09:58:15;5.72;;;2.35;;
73869;SDS011;64924;42.140;24.762;2024-01-27T10:00:41;8.98;;;2.38;;
73869;SDS011;64924;42.140;24.762;2024-01-27T10:03:07;7.53;;;2.28;;
73869;SDS011;64924;42.140;24.762;2024-01-27T10:05:33;12.98;;;2.83;;
73869;SDS011;64924;42.140;24.762;2024-01-27T10:08:00;7.38;;;2.88;;
73869;SDS011;64924;42.140;24.762;2024-01-27T10:10:26;9.98;;;2.90;;
73869;SDS011;64924;42.140;24.762;2024-01-27T10:12:52;4.97;;;2.38;;
73869;SDS011;64924;42.140;24.762;2024-01-27T10:15:21;4.63;;;1.90;;
73869;SDS011;64924;42.140;24.762;2024-01-27T10:17:47;8.35;;;2.20;;
73869;SDS011;64924;42.140;24.762;2024-01-27T10:20:13;5.95;;;2.40;;
73869;SDS011;64924;42.140;24.762;2024-01-27T10:22:41;7.03;;;1.98;;
73869;SDS011;64924;42.140;24.762;2024-01-27T10:25:07;6.72;;;2.40;;
73869;SDS011;64924;42.140;24.762;2024-01-27T10:27:34;8.05;;;3.17;;
73869;SDS011;64924;42.140;24.762;2024-01-27T10:30:00;7.63;;;4.75;;
73869;SDS011;64924;42.140;24.762;2024-01-27T10:32:27;13.80;;;6.72;;
73869;SDS011;64924;42.140;24.762;2024-01-27T10:35:03;5.15;;;3.33;;
73869;SDS011;64924;42.140;24.762;2024-01-27T10:37:29;4.60;;;2.10;;
73869;SDS011;64924;42.140;24.762;2024-01-27T10:40:04;6.10;;;3.20;;
73869;SDS011;64924;42.140;24.762;2024-01-27T10:42:33;4.90;;;2.10;;
73869;SDS011;64924;42.140;24.762;2024-01-27T10:45:00;4.47;;;1.90;;
73869;SDS011;64924;42.140;24.762;2024-01-27T10:47:29;2.55;;;1.40;;
73869;SDS011;64924;42.140;24.762;2024-01-27T10:49:56;3.35;;;1.73;;
73869;SDS011;64924;42.140;24.762;2024-01-27T10:52:31;4.28;;;1.70;;
73869;SDS011;64924;42.140;24.762;2024-01-27T10:55:00;3.35;;;2.13;;
73869;SDS011;64924;42.140;24.762;2024-01-27T10:57:31;4.63;;;2.20;;
73869;SDS011;64924;42.140;24.762;2024-01-27T10:59:59;6.78;;;1.75;;
73869;SDS011;64924;42.140;24.762;2024-01-27T11:02:31;3.95;;;2.47;;
73869;SDS011;64924;42.140;24.762;2024-01-27T11:05:00;2.58;;;1.70;;
73869;SDS011;64924;42.140;24.762;2024-01-27T11:07:28;3.90;;;1.83;;
73869;SDS011;64924;42.140;24.762;2024-01-27T11:09:57;17.17;;;3.67;;
73869;SDS011;64924;42.140;24.762;2024-01-27T11:12:22;3.17;;;1.85;;
73869;SDS011;64924;42.140;24.762;2024-01-27T11:14:49;2.75;;;1.90;;
73869;SDS011;64924;42.140;24.762;2024-01-27T11:17:16;5.55;;;2.60;;
73869;SDS011;64924;42.140;24.762;2024-01-27T11:19:42;4.65;;;2.00;;
73869;SDS011;64924;42.140;24.762;2024-01-27T11:22:26;10.15;;;2.05;;
73869;SDS011;64924;42.140;24.762;2024-01-27T11:24:53;3.38;;;1.90;;
73869;SDS011;64924;42.140;24.762;2024-01-27T11:27:32;5.10;;;2.28;;
73869;SDS011;64924;42.140;24.762;2024-01-27T11:29:58;7.97;;;1.95;;
73869;SDS011;64924;42.140;24.762;2024-01-27T11:32:23;2.63;;;1.65;;
73869;SDS011;64924;42.140;24.762;2024-01-27T11:34:51;4.03;;;1.35;;
73869;SDS011;64924;42.140;24.762;2024-01-27T11:37:17;6.78;;;1.90;;
73869;SDS011;64924;42.140;24.762;2024-01-27T11:39:49;7.93;;;3.15;;
73869;SDS011;64924;42.140;24.762;2024-01-27T11:42:14;5.47;;;2.05;;
73869;SDS011;64924;42.140;24.762;2024-01-27T11:44:41;6.47;;;2.25;;
73869;SDS011;64924;42.140;24.762;2024-01-27T11:47:14;6.28;;;2.10;;
73869;SDS011;64924;42.140;24.762;2024-01-27T11:49:41;4.20;;;2.45;;
73869;SDS011;64924;42.140;24.762;2024-01-27T11:52:08;3.70;;;2.42;;
73869;SDS011;64924;42.140;24.762;2024-01-27T11:54:33;5.95;;;2.08;;
73869;SDS011;64924;42.140;24.762;2024-01-27T11:56:59;3.97;;;2.28;;
73869;SDS011;64924;42.140;24.762;2024-01-27T11:59:24;5.22;;;2.38;;
73869;SDS011;64924;42.140;24.762;2024-01-27T12:01:50;8.27;;;2.40;;
73869;SDS011;64924;42.140;24.762;2024-01-27T12:04:15;3.75;;;2.40;;
73869;SDS011;64924;42.140;24.762;2024-01-27T12:06:42;2.88;;;1.85;;
73869;SDS011;64924;42.140;24.762;2024-01-27T12:09:08;3.58;;;1.90;;
73869;SDS011;64924;42.140;24.762;2024-01-27T12:11:39;3.78;;;1.88;;
73869;SDS011;64924;42.140;24.762;2024-01-27T12:14:06;3.38;;;1.80;;
73869;SDS011;64924;42.140;24.762;2024-01-27T12:16:31;2.20;;;1.67;;
73869;SDS011;64924;42.140;24.762;2024-01-27T12:18:57;3.78;;;1.63;;
73869;SDS011;64924;42.140;24.762;2024-01-27T12:21:23;4.68;;;1.70;;
73869;SDS011;64924;42.140;24.762;2024-01-27T12:23:55;3.22;;;1.90;;
73869;SDS011;64924;42.140;24.762;2024-01-27T12:26:25;3.28;;;2.20;;
73869;SDS011;64924;42.140;24.762;2024-01-27T12:28:53;4.28;;;2.30;;
73869;SDS011;64924;42.140;24.762;2024-01-27T12:31:20;5.68;;;2.42;;
73869;SDS011;64924;42.140;24.762;2024-01-27T12:33:52;3.97;;;2.00;;
73869;SDS011;64924;42.140;24.762;2024-01-27T12:36:20;2.97;;;1.80;;
73869;SDS011;64924;42.140;24.762;2024-01-27T12:39:08;4.80;;;1.80;;
73869;SDS011;64924;42.140;24.762;2024-01-27T12:41:33;3.20;;;1.83;;
73869;SDS011;64924;42.140;24.762;2024-01-27T12:43:59;3.60;;;2.20;;
73869;SDS011;64924;42.140;24.762;2024-01-27T12:46:25;4.75;;;2.20;;
73869;SDS011;64924;42.140;24.762;2024-01-27T12:48:52;5.53;;;3.67;;
73869;SDS011;64924;42.140;24.762;2024-01-27T12:51:18;4.93;;;2.30;;
73869;SDS011;64924;42.140;24.762;2024-01-27T12:53:44;2.58;;;1.90;;
73869;SDS011;64924;42.140;24.762;2024-01-27T12:56:13;3.53;;;2.20;;
73869;SDS011;64924;42.140;24.762;2024-01-27T13:01:06;5.15;;;2.50;;
73869;SDS011;64924;42.140;24.762;2024-01-27T13:03:32;4.97;;;2.22;;
73869;SDS011;64924;42.140;24.762;2024-01-27T13:05:58;5.95;;;2.25;;
73869;SDS011;64924;42.140;24.762;2024-01-27T13:08:24;3.60;;;2.20;;
73869;SDS011;64924;42.140;24.762;2024-01-27T13:10:50;3.25;;;2.13;;
73869;SDS011;64924;42.140;24.762;2024-01-27T13:13:15;3.05;;;2.22;;
73869;SDS011;64924;42.140;24.762;2024-01-27T13:15:41;3.13;;;2.08;;
73869;SDS011;64924;42.140;24.762;2024-01-27T13:18:08;3.60;;;2.40;;
73869;SDS011;64924;42.140;24.762;2024-01-27T13:20:35;4.47;;;2.40;;
73869;SDS011;64924;42.140;24.762;2024-01-27T13:23:01;3.47;;;2.28;;
73869;SDS011;64924;42.140;24.762;2024-01-27T13:25:26;3.67;;;1.90;;
73869;SDS011;64924;42.140;24.762;2024-01-27T13:27:52;3.15;;;2.28;;
73869;SDS011;64924;42.140;24.762;2024-01-27T13:30:17;3.90;;;2.40;;
73869;SDS011;64924;42.140;24.762;2024-01-27T13:32:43;3.92;;;2.30;;
73869;SDS011;64924;42.140;24.762;2024-01-27T13:35:09;4.63;;;2.58;;
73869;SDS011;64924;42.140;24.762;2024-01-27T13:37:35;3.10;;;2.30;;
73869;SDS011;64924;42.140;24.762;2024-01-27T13:40:02;8.05;;;2.35;;
73869;SDS011;64924;42.140;24.762;2024-01-27T13:42:29;3.20;;;2.00;;
73869;SDS011;64924;42.140;24.762;2024-01-27T13:44:55;3.90;;;2.60;;
73869;SDS011;64924;42.140;24.762;2024-01-27T13:47:20;4.35;;;2.60;;
73869;SDS011;64924;42.140;24.762;2024-01-27T13:49:46;5.57;;;2.45;;
73869;SDS011;64924;42.140;24.762;2024-01-27T13:52:12;9.65;;;2.60;;
73869;SDS011;64924;42.140;24.762;2024-01-27T13:54:38;5.25;;;2.50;;
73869;SDS011;64924;42.140;24.762;2024-01-27T13:57:03;4.20;;;2.55;;
73869;SDS011;64924;42.140;24.762;2024-01-27T13:59:29;5.05;;;2.53;;
73869;SDS011;64924;42.140;24.762;2024-01-27T14:01:56;4.75;;;3.00;;
73869;SDS011;64924;42.140;24.762;2024-01-27T14:04:23;4.78;;;2.72;;
73869;SDS011;64924;42.140;24.762;2024-01-27T14:06:50;7.30;;;3.20;;
73869;SDS011;64924;42.140;24.762;2024-01-27T14:09:18;5.53;;;2.92;;
73869;SDS011;64924;42.140;24.762;2024-01-27T14:11:44;3.90;;;2.70;;
73869;SDS011;64924;42.140;24.762;2024-01-27T14:14:09;3.67;;;2.40;;
73869;SDS011;64924;42.140;24.762;2024-01-27T14:16:35;5.10;;;2.60;;
73869;SDS011;64924;42.140;24.762;2024-01-27T14:19:00;7.40;;;3.17;;
73869;SDS011;64924;42.140;24.762;2024-01-27T14:21:26;4.47;;;2.60;;
73869;SDS011;64924;42.140;24.762;2024-01-27T14:23:53;5.78;;;2.00;;
73869;SDS011;64924;42.140;24.762;2024-01-27T14:26:26;5.68;;;2.60;;
73869;SDS011;64924;42.140;24.762;2024-01-27T14:28:53;6.10;;;2.40;;
73869;SDS011;64924;42.140;24.762;2024-01-27T14:31:19;3.80;;;2.42;;